Tiempo atmosférico en la estación meteorológica de Fuentesauco, Zamora (811 m.)



Fecha
DESCASC
Temp. máxima en grados centígrados (hora)
DESCASC
Temp. mínima en grados centígrados (hora)
DESCASC
Temp. media en grados centígrados
DESCASC
Racha de viento máxima en m/sg (hora)
DESCASC
Velocidad máxima media en intervalos de 10 minutos(hora)
DESCASC
Precipitaciones diarias en mm
DESCASC
Precipitaciones de 00:00 a 06:00 en mm
DESCASC
Precipitaciones de 06:00 a 12:00 en mm
DESCASC
Precipitaciones de 12:00 a 18:00 en mm
DESCASC
Precipitaciones de 18:00 a 24:00 en mm
DESCASC
18-02-2018 10.5 (16:40) -4 (07:50) 3.3 9.17 (17:20) 6.67 (17:40) 0 0 0 0 0
17-02-2018 9.6 (15:40) 2.2 (23:00) 5.9 10.83 (13:40) 7.22 (13:40) 0 0 0 0 0
16-02-2018 15.1 (17:00) 6 (23:40) 10.6 5.83 (10:00) 4.17 (10:00) 0 0 0 0 0
15-02-2018 13.3 (13:50) 7.4 (00:00) 10.4 10.28 (15:00) 6.94 (14:30) 0 0 0 0 0
14-02-2018 8.2 (14:30) 5.4 (00:00) 6.8 14.72 (13:40) 10 (13:50) 0 0 0 0 0
13-02-2018 6.7 (15:30) -2.5 (-00:0) 2.1 17.78 (17:40) 12.5 (13:00) 0.2 0 0 0 0.2
12-02-2018 8 (17:10) -1.6 (-00:0) 3.2 8.61 (12:30) 6.11 (02:50) 0 0 0 0 0
11-02-2018 12 (14:00) 2.4 (00:00) 7.2 13.61 (13:00) 9.17 (13:50) 0.2 0 0 0 0.2
10-02-2018 8.5 (15:50) -3.6 (-00:0) 2.5 6.94 (15:50) 4.44 (15:50) 0 0 0 0 0
09-02-2018 7.9 (17:00) -2.8 (-00:0) 2.6 7.78 (20:10) 5 (20:10) 0 0 0 0 0
08-02-2018 4.7 (17:10) -5.4 (-00:0) -0.4 5.83 (16:00) 3.06 (14:40) 0 0 0 0 0
07-02-2018 3.7 (16:20) -4 (-00:0) -0.1 8.33 (15:20) 5.83 (15:20) 0 0 0 0 0
06-02-2018 3.6 (16:50) -4.4 (-00:0) -0.4 8.61 (13:00) 5.83 (12:10) 0 0 0 0 0
05-02-2018 5.6 (15:00) -2.2 (-00:0) 1.7 18.06 (13:40) 11.39 (13:40) 0.4 0 0.2 0.2 0
04-02-2018 4.8 (15:50) -1.9 (-00:0) 1.5 10 (01:00) 6.67 (01:00) 0.6 0.4 0 0.2 0
03-02-2018 7.4 (16:40) -3.1 (-00:0) 2.2 11.94 (18:20) 8.61 (18:20) 0.6 0 0 0 0.6
02-02-2018 5.8 (17:10) -3 (-00:0) 1.4 8.61 (17:30) 6.11 (17:10) 0 0 0 0 0
01-02-2018 9.5 (15:20) -0.9 (-00:0) 4.3 15.83 (16:50) 11.11 (16:50) 0 0 0 0 0
31-01-2018 13.4 (16:50) -1.6 (-00:0) 5.9 4.17 (14:10) 2.5 (14:10) 0 0 0 0 0
30-01-2018 10.6 (16:50) -1.5 (-00:0) 4.6 4.44 (13:40) 3.06 (17:10) 0 0 0 0 0
29-01-2018 10.7 (16:00) -1.2 (-00:0) 4.7 5.28 (16:00) 3.61 (16:40) 0 0 0 0 0
28-01-2018 11 (16:30) -2.7 (-00:0) 4.1 11.94 (15:50) 8.89 (15:50) 0 0 0 0 0
27-01-2018 7.2 (16:40) -1.7 (-00:0) 2.7 9.44 (20:40) 7.22 (20:40) 0 0 0 0 0
26-01-2018 7.4 (15:20) 0.1 (00:00) 3.8 8.89 (16:10) 6.39 (15:40) 0 0 0 0 0
25-01-2018 6.8 (12:50) 1.8 (00:00) 4.3 12.22 (17:50) 8.61 (17:50) 9.6 0 4.2 0.8 4.6
24-01-2018 9.3 (16:10) 1.9 (00:00) 5.6 6.67 (16:00) 4.72 (16:00) 0 0 0 0 0
23-01-2018 5.7 (16:40) 0.3 (00:00) 3 4.72 (16:10) 2.5 (15:10) 0.2 0 0.2 0 0
22-01-2018 12.6 (16:30) 2.1 (00:00) 7.4 6.39 (06:20) 4.17 (06:20) 0 0 0 0 0

Gráficas

Temp. máximas Temp. mínimas Temp. medias Precipitaciones Rachas de viento máximas Velocidades máximas media en intervalos de 10 minutos

Datos horarios

Fecha y hora oficial Temperatura (ºC) Velocidad del viento (km/h) Dirección del viento Racha (km/h) Dirección de racha Precipitación (mm) Presión (hPa) Tendencia (hPa) Humedad (%)
2018-02-20 23:00:00 5.6 13 Este 27 Este 0 -- -- 74
2018-02-20 22:00:00 6.6 15 Este 32 Este 0 -- -- 70
2018-02-20 21:00:00 7.5 18 Este 28 Este 0 -- -- 68
2018-02-20 20:00:00 8.2 12 Nordeste 18 Nordeste 0 -- -- 63
2018-02-20 19:00:00 10.1 15 Nordeste 21 Nordeste 0 -- -- 56
2018-02-20 18:00:00 11.3 15 Nordeste 28 Nordeste 0 -- -- 52
2018-02-20 17:00:00 11.4 16 Nordeste 25 Nordeste 0 -- -- 52
2018-02-20 16:00:00 11.2 16 Nordeste 26 Norte 0 -- -- 52
2018-02-20 15:00:00 10.3 12 Nordeste 25 Norte 0 -- -- 57
2018-02-20 14:00:00 9.7 19 Nordeste 32 Este 0 -- -- 65
2018-02-20 13:00:00 9.4 18 Nordeste 26 Nordeste 0 -- -- 67
2018-02-20 12:00:00 8.9 17 Nordeste 26 Nordeste 0 -- -- 66
2018-02-20 11:00:00 7.8 18 Nordeste 25 Norte 0 -- -- 69
2018-02-20 10:00:00 6.2 11 Norte 15 Norte 0 -- -- 81
2018-02-20 09:00:00 2.6 0 Calma 15 Norte 0 -- -- 89
2018-02-20 08:00:00 2.7 9 Norte 13 Norte 0 -- -- 90
2018-02-20 07:00:00 1.9 8 Norte 13 Norte 0 -- -- 90
2018-02-20 06:00:00 1.6 4 Norte 7 Norte 0 -- -- 89
2018-02-20 05:00:00 2.4 4 Noroeste 9 Norte 0 -- -- 88
2018-02-20 04:00:00 3.1 9 Norte 13 Norte 0 -- -- 87
2018-02-20 03:00:00 4 11 Norte 13 Norte 0 -- -- 87
2018-02-20 02:00:00 4.7 7 Nordeste 17 Norte 0 -- -- 82
2018-02-20 01:00:00 3.9 9 Norte 13 Norte 0 -- -- 83
2018-02-20 00:00:00 5.1 4 Norte 12 Nordeste 0 -- -- 77
2018-02-19 23:00:00 6 10 Nordeste 13 Nordeste 0 -- -- 77
2018-02-19 22:00:00 4.6 7 Norte 13 Nordeste 0 -- -- 79
2018-02-19 21:00:00 6.5 10 Nordeste 12 Norte 0 -- -- 72
2018-02-19 20:00:00 7.3 6 Nordeste 15 Nordeste 0 -- -- 67
2018-02-19 19:00:00 9.8 14 Nordeste 20 Nordeste 0 -- -- 60
2018-02-19 18:00:00 10.9 12 Nordeste 15 Norte 0 -- -- 56
2018-02-19 17:00:00 11 9 Norte 20 Nordeste 0 -- -- 58
2018-02-19 16:00:00 11.4 14 Nordeste 21 Norte 0 -- -- 55
2018-02-19 15:00:00 10.7 8 Nordeste 21 Norte 0 -- -- 58
2018-02-19 14:00:00 10.3 9 Nordeste 19 Nordeste 0 -- -- 59
2018-02-19 13:00:00 8.9 8 Nordeste 14 Nordeste 0 -- -- 67
2018-02-19 12:00:00 7.9 4 Nordeste 9 Nordeste 0 -- -- 69
2018-02-19 11:00:00 6.7 2 Sur 7 Sur 0 -- -- 79
2018-02-19 10:00:00 4.9 0 Calma 2 Oeste 0 -- -- 86
2018-02-19 09:00:00 3.8 0 Calma -- -- 0 -- -- 88
2018-02-19 08:00:00 3 0 Calma -- -- 0 -- -- 89
2018-02-19 07:00:00 2.5 0 Calma -- -- 0 -- -- 88
2018-02-19 06:00:00 1.8 0 Calma 3 Sudoeste 0 -- -- 89
2018-02-19 05:00:00 1.9 0 Calma 2 Sudoeste 0 -- -- 87
2018-02-19 04:00:00 2.8 0 Calma 2 Sudeste 0 -- -- 84
2018-02-19 03:00:00 3.6 0 Calma 2 Sur 0 -- -- 84
2018-02-19 02:00:00 3.9 0 Calma 3 Este 0 -- -- 82
2018-02-19 01:00:00 4 0 Calma 5 Nordeste 0 -- -- 82
2018-02-19 00:00:00 4.3 5 Nordeste 11 Nordeste 0 -- -- 80
2018-02-18 23:00:00 5.1 10 Nordeste 13 Este 0 -- -- 77
2018-02-18 22:00:00 6.5 9 Este 15 Nordeste 0 -- -- 72
2018-02-18 21:00:00 5.8 8 Nordeste 12 Nordeste 0 -- -- 76
2018-02-18 20:00:00 5.9 9 Nordeste 11 Nordeste 0 -- -- 73
2018-02-18 19:00:00 7.1 9 Nordeste 22 Nordeste 0 -- -- 68
2018-02-18 18:00:00 9.5 19 Nordeste 33 Nordeste 0 -- -- 59
2018-02-18 17:00:00 10.4 19 Nordeste 27 Nordeste 0 -- -- 54
2018-02-18 16:00:00 10 16 Nordeste 27 Nordeste 0 -- -- 56
2018-02-18 15:00:00 8.7 15 Nordeste 26 Nordeste 0 -- -- 62
2018-02-18 14:00:00 7.5 14 Nordeste 24 Nordeste 0 -- -- 64
2018-02-18 13:00:00 6 17 Nordeste 24 Este 0 -- -- 68
2018-02-18 12:00:00 4 12 Nordeste 20 Nordeste 0 -- -- 80
2018-02-18 11:00:00 2 8 Nordeste 12 Nordeste 0 -- -- 85
2018-02-18 10:00:00 0.2 5 Nordeste 7 Nordeste 0 -- -- 91
2018-02-18 09:00:00 -2.8 2 Norte 5 Nordeste 0 -- -- 95
2018-02-18 08:00:00 -3.7 0 Calma -- -- 0 -- -- 93
2018-02-18 07:00:00 -3.2 0 Calma 3 Norte 0 -- -- 92
2018-02-18 06:00:00 -2.7 3 Norte 6 Nordeste 0 -- -- 92
2018-02-18 05:00:00 -1.6 4 Nordeste 9 Nordeste 0 -- -- 89
2018-02-18 04:00:00 -0.9 7 Nordeste 10 Norte 0 -- -- 88
2018-02-18 03:00:00 -0.6 9 Nordeste 13 Nordeste 0 -- -- 87
2018-02-18 02:00:00 0.1 8 Nordeste 22 Nordeste 0 -- -- 82
2018-02-18 01:00:00 2.2 17 Este 30 Este 0 -- -- 76
2018-02-18 00:00:00 3.6 17 Nordeste 26 Nordeste 0 -- -- 76
2018-02-17 23:00:00 2.2 11 Este 23 Nordeste 0 -- -- 81
2018-02-17 22:00:00 3.8 15 Este 22 Este 0 -- -- 75
2018-02-17 21:00:00 4.8 13 Este 17 Este 0 -- -- 74
2018-02-17 20:00:00 4.9 12 Este 14 Este 0 -- -- 76
2018-02-17 19:00:00 7.2 12 Este 20 Este 0 -- -- 70
2018-02-17 18:00:00 8.3 16 Este 29 Este 0 -- -- 68
2018-02-17 17:00:00 9.6 14 Nordeste 30 Nordeste 0 -- -- 67
2018-02-17 16:00:00 9.4 22 Nordeste 30 Nordeste 0 -- -- 72
2018-02-17 15:00:00 9.1 19 Nordeste 28 Nordeste 0 -- -- 74
2018-02-17 14:00:00 8.3 21 Nordeste 39 Nordeste 0 -- -- 79
2018-02-17 13:00:00 9.2 20 Nordeste 29 Nordeste 0 -- -- 76
2018-02-17 12:00:00 8.5 19 Norte 27 Norte 0 -- -- 78
2018-02-17 11:00:00 7.5 12 Norte 18 Noroeste 0 -- -- 87
2018-02-17 10:00:00 7 8 Noroeste 17 Noroeste 0 -- -- 91
2018-02-17 09:00:00 6.5 2 Oeste 6 Sudoeste 0 -- -- 92
2018-02-17 08:00:00 6.3 3 Sudoeste 7 Sudoeste 0 -- -- 92
2018-02-17 07:00:00 6.3 6 Sudoeste 9 Sudoeste 0 -- -- 93
2018-02-17 06:00:00 6.2 3 Sudoeste 7 Oeste 0 -- -- 93
2018-02-17 05:00:00 6.2 5 Oeste 12 Oeste 0 -- -- 93
2018-02-17 04:00:00 5 8 Oeste 12 Oeste 0 -- -- 95
2018-02-17 03:00:00 4.1 3 Sudoeste 10 Sudoeste 0 -- -- 92
2018-02-17 02:00:00 5.4 9 Sudoeste 15 Sudoeste 0 -- -- 93
2018-02-17 01:00:00 5.8 3 Oeste 17 Sudoeste 0 -- -- 92
2018-02-17 00:00:00 6.1 11 Sudoeste 15 Sudoeste 0 -- -- 92
2018-02-16 23:00:00 6.7 8 Sudoeste 13 Sudoeste 0 -- -- 89
2018-02-16 22:00:00 9 11 Oeste 21 Oeste 0 -- -- 83
2018-02-16 21:00:00 10.3 12 Oeste 19 Oeste 0 -- -- 81
2018-02-16 20:00:00 10.1 9 Oeste 19 Oeste 0 -- -- 79
2018-02-16 19:00:00 12 9 Oeste 19 Oeste 0 -- -- 73
2018-02-16 18:00:00 13 9 Oeste 20 Oeste 0 -- -- 70
2018-02-16 17:00:00 15.1 12 Oeste 18 Oeste 0 -- -- 62
2018-02-16 16:00:00 14.6 7 Oeste 18 Oeste 0 -- -- 64
2018-02-16 15:00:00 13.9 9 Oeste 17 Sudoeste 0 -- -- 70
2018-02-16 14:00:00 13.3 9 Sudoeste 21 Sudoeste 0 -- -- 73
2018-02-16 13:00:00 12.7 10 Sur 21 Sur 0 -- -- 74
2018-02-16 12:00:00 10.5 13 Sudoeste 21 Sudoeste 0 -- -- 84
2018-02-16 11:00:00 9.7 13 Sudoeste 20 Sudoeste 0 -- -- 90
2018-02-16 10:00:00 8.4 15 Sudoeste 21 Sudoeste 0 -- -- 95
2018-02-16 09:00:00 7.3 10 Sudoeste 14 Sudoeste 0 -- -- 96
2018-02-16 08:00:00 7.5 7 Sudoeste 13 Sur 0 -- -- 96
2018-02-16 07:00:00 7.6 6 Sudoeste 14 Oeste 0 -- -- 95
2018-02-16 06:00:00 8 7 Sudoeste 15 Oeste 0 -- -- 94
2018-02-16 05:00:00 8.2 9 Sudoeste 13 Sudoeste 0 -- -- 92
2018-02-16 04:00:00 8.3 2 Noroeste 15 Sudoeste 0 -- -- 91
2018-02-16 03:00:00 8.8 12 Sudoeste 16 Sudoeste 0 -- -- 90
2018-02-16 02:00:00 9.1 12 Sudoeste 18 Sudoeste 0 -- -- 89
2018-02-16 01:00:00 9.1 12 Sudoeste 18 Sudoeste 0 -- -- 89
2018-02-16 00:00:00 9.3 11 Sudoeste 19 Sudoeste 0 -- -- 88
2018-02-15 23:00:00 9.4 12 Sudoeste 21 Sudoeste 0 -- -- 88
2018-02-15 22:00:00 10 10 Sudoeste 15 Sudoeste 0 -- -- 87
2018-02-15 21:00:00 10.5 12 Sudoeste 17 Sudoeste 0 -- -- 85
2018-02-15 20:00:00 10.9 9 Sudoeste 21 Sudoeste 0 -- -- 82
2018-02-15 19:00:00 11.7 16 Sudoeste 26 Sudoeste 0 -- -- 79
2018-02-15 18:00:00 12.3 17 Sudoeste 31 Sudoeste 0 -- -- 77
2018-02-15 17:00:00 13.1 22 Sudoeste 32 Oeste 0 -- -- 73
2018-02-15 16:00:00 12.7 23 Oeste 32 Sudoeste 0 -- -- 77
2018-02-15 15:00:00 13 24 Oeste 37 Sudoeste 0 -- -- 79
2018-02-15 14:00:00 13.2 24 Oeste 34 Oeste 0 -- -- 75
2018-02-15 13:00:00 12.8 22 Sudoeste 32 Sudoeste 0 -- -- 76
2018-02-15 12:00:00 11.5 19 Sudoeste 32 Sudoeste 0 -- -- 82
2018-02-15 11:00:00 10.1 24 Sudoeste 33 Sudoeste 0 -- -- 85
2018-02-15 10:00:00 8.9 17 Sudoeste 24 Sudoeste 0 -- -- 91
2018-02-15 09:00:00 7.9 18 Sudoeste 28 Sudoeste 0 -- -- 94
2018-02-15 08:00:00 7.8 17 Sudoeste 31 Sudoeste 0 -- -- 96
2018-02-15 07:00:00 7.8 15 Sudoeste 29 Sudoeste 0 -- -- 97
2018-02-15 06:00:00 7.8 21 Sudoeste 29 Sudoeste 0 -- -- 97
2018-02-15 05:00:00 7.8 19 Sudoeste 28 Sudoeste 0 -- -- 96
2018-02-15 04:00:00 8 23 Sudoeste 31 Sudoeste 0 -- -- 94
2018-02-15 03:00:00 7.6 20 Sudoeste 30 Sudoeste 0 -- -- 94
2018-02-15 02:00:00 7.5 16 Sudoeste 26 Sudoeste 0 -- -- 95
2018-02-15 01:00:00 7.9 18 Sudoeste 26 Sudoeste 0 -- -- 93
2018-02-15 00:00:00 8 17 Sudoeste 30 Sudoeste 0 -- -- 93
2018-02-14 23:00:00 8 22 Sudoeste 39 Sudoeste 0 -- -- 93
2018-02-14 22:00:00 7.6 25 Sudoeste 35 Sudoeste 0 -- -- 94
2018-02-14 21:00:00 7.7 27 Sudoeste 39 Sudoeste 0 -- -- 94
2018-02-14 20:00:00 7.5 31 Sudoeste 41 Sudoeste 0 -- -- 95
2018-02-14 19:00:00 7.7 23 Sudoeste 40 Sudoeste 0 -- -- 94
2018-02-14 18:00:00 8.1 27 Sudoeste 41 Sudoeste 0 -- -- 92
2018-02-14 17:00:00 7.9 27 Sudoeste 44 Sudoeste 0 -- -- 92
2018-02-14 16:00:00 7.7 29 Sudoeste 47 Sudoeste 0 -- -- 93
2018-02-14 15:00:00 8 30 Sudoeste 49 Sudoeste 0 -- -- 89
2018-02-14 14:00:00 8.1 33 Sudoeste 53 Sudoeste 0 -- -- 87
2018-02-14 13:00:00 7.5 32 Sudoeste 49 Oeste 0 -- -- 90
2018-02-14 12:00:00 7.3 32 Sudoeste 45 Sudoeste 0 -- -- 89
2018-02-14 11:00:00 6.7 30 Sudoeste 42 Sudoeste 0 -- -- 93
2018-02-14 10:00:00 6.3 26 Sudoeste 49 Sudoeste 0 -- -- 95
2018-02-14 09:00:00 5.7 24 Sudoeste 39 Sudoeste 0 -- -- 95
2018-02-14 08:00:00 5.5 24 Sudoeste 35 Sudoeste 0 -- -- 94
2018-02-14 07:00:00 5.4 23 Sudoeste 36 Sudoeste 0 -- -- 94
2018-02-14 06:00:00 5.5 19 Sudoeste 35 Sudoeste 0 -- -- 92
2018-02-14 05:00:00 5.5 21 Sudoeste 35 Sudoeste 0 -- -- 90
2018-02-14 04:00:00 5.6 23 Sudoeste 36 Sudoeste 0 -- -- 90
2018-02-14 03:00:00 6.1 26 Sudoeste 37 Oeste 0 -- -- 88
2018-02-14 02:00:00 6.2 26 Oeste 42 Oeste 0 -- -- 89
2018-02-14 01:00:00 6.1 26 Sudoeste 47 Sudoeste 0 -- -- 91
2018-02-14 00:00:00 6.1 27 Sudoeste 44 Sudoeste 0 -- -- 88
2018-02-13 23:00:00 6.2 27 Sudoeste 43 Sudoeste 0 -- -- 90
2018-02-13 22:00:00 6.4 25 Sudoeste 46 Sudoeste 0 -- -- 88
2018-02-13 21:00:00 6.4 24 Sudoeste 46 Oeste 0 -- -- 89
2018-02-13 20:00:00 6.3 32 Oeste 57 Oeste 0.2 -- -- 90
2018-02-13 19:00:00 6.3 36 Sudoeste 55 Sudoeste 0 -- -- 88
2018-02-13 18:00:00 6.3 32 Sudoeste 64 Sudoeste 0 -- -- 88
2018-02-13 17:00:00 6.4 39 Sudoeste 63 Oeste 0 -- -- 83
2018-02-13 16:00:00 6.3 38 Sudoeste 63 Sudoeste 0 -- -- 82
2018-02-13 15:00:00 6.4 37 Sudoeste 55 Sudoeste 0 -- -- 80
2018-02-13 14:00:00 5.9 40 Sudoeste 59 Sudoeste 0 -- -- 76
2018-02-13 13:00:00 5.2 45 Sudoeste 63 Sudoeste 0 -- -- 75
2018-02-13 12:00:00 4.6 36 Sudoeste 57 Sudoeste 0 -- -- 75
2018-02-13 11:00:00 2.4 32 Sudoeste 49 Sudoeste 0 -- -- 83
2018-02-13 10:00:00 0.5 29 Sudoeste 51 Sudoeste 0 -- -- 86
2018-02-13 09:00:00 -1 26 Sudoeste 38 Sudoeste 0 -- -- 88
2018-02-13 08:00:00 -1.7 22 Sudoeste 34 Sudoeste 0 -- -- 88
2018-02-13 07:00:00 -1.7 24 Sudoeste 34 Sudoeste 0 -- -- 89
2018-02-13 06:00:00 -2.3 17 Sudoeste 26 Oeste 0 -- -- 90
2018-02-13 05:00:00 -2.4 14 Sudoeste 21 Sudoeste 0 -- -- 88
2018-02-13 04:00:00 -2.1 15 Sudoeste 20 Sudoeste 0 -- -- 85
2018-02-13 03:00:00 -2.1 13 Sudoeste 20 Sudoeste 0 -- -- 83
2018-02-13 02:00:00 -1.4 12 Sudoeste 19 Sudoeste 0 -- -- 80
2018-02-13 01:00:00 -1.1 4 Sudoeste 8 Sudoeste 0 -- -- 75
2018-02-13 00:00:00 0 0 Calma 4 Sudoeste 0 -- -- 71
2018-02-12 23:00:00 0.7 2 Sudoeste 16 Oeste 0 -- -- 68
2018-02-12 22:00:00 1.3 11 Oeste 18 Oeste 0 -- -- 67
2018-02-12 21:00:00 1.3 9 Oeste 14 Oeste 0 -- -- 62
2018-02-12 20:00:00 2.6 6 Oeste 17 Oeste 0 -- -- 54
2018-02-12 19:00:00 4.9 10 Oeste 24 Noroeste 0 -- -- 46
2018-02-12 18:00:00 6.3 11 Oeste 30 Noroeste 0 -- -- 43
2018-02-12 17:00:00 7.9 12 Noroeste 24 Noroeste 0 -- -- 39
2018-02-12 16:00:00 7.8 15 Noroeste 26 Noroeste 0 -- -- 40
2018-02-12 15:00:00 7.3 17 Noroeste 28 Noroeste 0 -- -- 40
2018-02-12 14:00:00 7 16 Noroeste 27 Noroeste 0 -- -- 43
2018-02-12 13:00:00 5.7 14 Norte 31 Norte 0 -- -- 51
2018-02-12 12:00:00 5 18 Norte 27 Noroeste 0 -- -- 57
2018-02-12 11:00:00 3.3 17 Norte 24 Norte 0 -- -- 60
2018-02-12 10:00:00 1.5 8 Norte 10 Norte 0 -- -- 70
2018-02-12 09:00:00 -1.6 3 Noroeste 6 Norte 0 -- -- 83
2018-02-12 08:00:00 0.1 3 Nordeste 9 Norte 0 -- -- 77
2018-02-12 07:00:00 1.5 8 Norte 15 Norte 0 -- -- 77
2018-02-12 06:00:00 2 12 Norte 20 Norte 0 -- -- 76
2018-02-12 05:00:00 2.6 14 Norte 26 Norte 0 -- -- 76
2018-02-12 04:00:00 3.2 11 Norte 27 Norte 0 -- -- 80
2018-02-12 03:00:00 3.9 19 Norte 30 Norte 0 -- -- 79
2018-02-12 02:00:00 4.9 19 Norte 26 Norte 0 -- -- 81
2018-02-12 01:00:00 6 18 Norte 27 Norte 0 -- -- 81
2018-02-12 00:00:00 7.1 12 Noroeste 20 Oeste 0.2 -- -- 88
2018-02-11 23:00:00 7.5 13 Oeste 23 Oeste 0 -- -- 92
2018-02-11 22:00:00 7.7 14 Oeste 34 Sudoeste 0 -- -- 90
2018-02-11 21:00:00 8.5 21 Oeste 31 Oeste 0 -- -- 82
2018-02-11 20:00:00 8.7 22 Oeste 32 Oeste 0 -- -- 80
2018-02-11 19:00:00 9.5 20 Oeste 32 Oeste 0 -- -- 78
2018-02-11 18:00:00 10.3 21 Oeste 39 Oeste 0 -- -- 73
2018-02-11 17:00:00 10.9 25 Oeste 48 Oeste 0 -- -- 70
2018-02-11 16:00:00 11 27 Oeste 46 Oeste 0 -- -- 71
2018-02-11 15:00:00 11.2 28 Oeste 45 Oeste 0 -- -- 72
2018-02-11 14:00:00 12 30 Oeste 47 Oeste 0 -- -- 70
2018-02-11 13:00:00 11.6 31 Oeste 49 Oeste 0 -- -- 71
2018-02-11 12:00:00 9.8 26 Oeste 45 Oeste 0 -- -- 81
2018-02-11 11:00:00 8.5 27 Oeste 47 Oeste 0 -- -- 86
2018-02-11 10:00:00 6.6 26 Oeste 38 Oeste 0 -- -- 95
2018-02-11 09:00:00 4.9 15 Sudoeste 21 Sudoeste 0 -- -- 96
2018-02-11 08:00:00 4.3 14 Sudoeste 25 Sudoeste 0 -- -- 95
2018-02-11 07:00:00 3.8 12 Sudoeste 30 Sudoeste 0 -- -- 94
2018-02-11 06:00:00 3.5 13 Sudoeste 22 Sudoeste 0 -- -- 96
2018-02-11 05:00:00 2.7 14 Sudoeste 24 Sudoeste 0 -- -- 95
2018-02-11 04:00:00 2.4 12 Sudoeste 26 Sudoeste 0 -- -- 93
2018-02-11 03:00:00 3 15 Sudoeste 23 Sudoeste 0 -- -- 90
2018-02-11 02:00:00 2.8 14 Sudoeste 22 Sudoeste 0 -- -- 88
2018-02-11 01:00:00 3 6 Sudoeste 16 Sudoeste 0 -- -- 83
2018-02-11 00:00:00 4.8 12 Sudoeste 18 Sudoeste 0 -- -- 76
2018-02-10 23:00:00 5.7 9 Oeste 16 Oeste 0 -- -- 71
2018-02-10 22:00:00 5.6 10 Oeste 16 Oeste 0 -- -- 69
2018-02-10 21:00:00 5.7 3 Sudoeste 12 Oeste 0 -- -- 64
2018-02-10 20:00:00 6.6 9 Oeste 13 Oeste 0 -- -- 57
2018-02-10 19:00:00 7.4 11 Oeste 17 Noroeste 0 -- -- 54
2018-02-10 18:00:00 8 5 Noroeste 14 Noroeste 0 -- -- 49
2018-02-10 17:00:00 8.5 9 Noroeste 17 Noroeste 0 -- -- 46
2018-02-10 16:00:00 8.4 12 Noroeste 25 Norte 0 -- -- 47
2018-02-10 15:00:00 7.7 8 Norte 21 Noroeste 0 -- -- 51
2018-02-10 14:00:00 6.7 8 Norte 22 Norte 0 -- -- 53
2018-02-10 13:00:00 5.8 10 Norte 23 Norte 0 -- -- 59
2018-02-10 12:00:00 4.8 13 Norte 19 Norte 0 -- -- 63
2018-02-10 11:00:00 2.8 4 Norte 7 Norte 0 -- -- 72
2018-02-10 10:00:00 0.1 0 Calma 0 Calma 0 -- -- 91
2018-02-10 09:00:00 -3.4 0 Calma -- -- 0 -- -- 89
2018-02-10 08:00:00 -3.5 0 Calma 6 Nordeste 0 -- -- 89
2018-02-10 07:00:00 -2.7 5 Nordeste 7 Norte 0 -- -- 87
2018-02-10 06:00:00 -2 5 Norte 8 Norte 0 -- -- 87
2018-02-10 05:00:00 -1.3 8 Norte 10 Norte 0 -- -- 85
2018-02-10 04:00:00 -1.2 8 Norte 12 Norte 0 -- -- 88
2018-02-10 03:00:00 -0.8 4 Noroeste 13 Norte 0 -- -- 87
2018-02-10 02:00:00 1.3 8 Norte 14 Norte 0 -- -- 89
2018-02-10 01:00:00 0.3 10 Norte 13 Norte 0 -- -- 93
2018-02-10 00:00:00 -0.2 8 Nordeste 11 Nordeste 0 -- -- 88
2018-02-09 23:00:00 1.5 7 Norte 15 Norte 0 -- -- 82
2018-02-09 22:00:00 3.4 3 Norte 23 Norte 0 -- -- 76
2018-02-09 21:00:00 4.8 16 Norte 28 Norte 0 -- -- 69
2018-02-09 20:00:00 5 10 Noroeste 23 Norte 0 -- -- 83
2018-02-09 19:00:00 5.8 11 Oeste 16 Oeste 0 -- -- 81
2018-02-09 18:00:00 7.5 13 Oeste 21 Sudoeste 0 -- -- 75
2018-02-09 17:00:00 7.9 11 Oeste 19 Sudoeste 0 -- -- 71
2018-02-09 16:00:00 7.1 12 Sudoeste 19 Sudoeste 0 -- -- 76
2018-02-09 15:00:00 6.5 10 Oeste 22 Sudoeste 0 -- -- 77
2018-02-09 14:00:00 5.2 14 Sudoeste 20 Oeste 0 -- -- 82
2018-02-09 13:00:00 3.5 12 Sudoeste 21 Sudoeste 0 -- -- 89
2018-02-09 12:00:00 1.6 12 Sudoeste 22 Sudoeste 0 -- -- 93
2018-02-09 11:00:00 0.9 16 Sudoeste 21 Sudoeste 0 -- -- 93
2018-02-09 10:00:00 -0.1 12 Oeste 18 Sudoeste 0 -- -- 91
2018-02-09 09:00:00 -0.4 9 Oeste 20 Sudoeste 0 -- -- 80
2018-02-09 08:00:00 -0.4 9 Sudoeste 15 Sudoeste 0 -- -- 75
2018-02-09 07:00:00 -0.4 12 Sudoeste 18 Sudoeste 0 -- -- 71
2018-02-09 06:00:00 -0.6 8 Sudoeste 14 Sudoeste 0 -- -- 71
2018-02-09 05:00:00 -1 8 Sudoeste 14 Sudoeste 0 -- -- 74
2018-02-09 04:00:00 -2.3 9 Sudoeste 18 Sudoeste 0 -- -- 78
2018-02-09 03:00:00 -2.5 8 Sudoeste 18 Sudoeste 0 -- -- 79
2018-02-09 02:00:00 -2.2 10 Sudoeste 14 Sudoeste 0 -- -- 78
2018-02-09 01:00:00 -1.9 8 Sudoeste 15 Sudoeste 0 -- -- 76
2018-02-09 00:00:00 -1.9 6 Sudoeste 10 Sudoeste 0 -- -- 76
2018-02-08 23:00:00 -1.7 6 Sudoeste 13 Sudoeste 0 -- -- 75
2018-02-08 22:00:00 -2.1 0 Calma -- -- 0 -- -- 72
2018-02-08 21:00:00 -1.2 0 Calma -- -- 0 -- -- 66
2018-02-08 20:00:00 -0.3 0 Calma -- -- 0 -- -- 64
2018-02-08 19:00:00 2.5 0 Calma 9 Noroeste 0 -- -- 52
2018-02-08 18:00:00 4.3 4 Noroeste 13 Noroeste 0 -- -- 47
2018-02-08 17:00:00 4.5 6 Noroeste 18 Nordeste 0 -- -- 48
2018-02-08 16:00:00 4.5 7 Noroeste 21 Norte 0 -- -- 45
2018-02-08 15:00:00 3.8 9 Norte 18 Norte 0 -- -- 47
2018-02-08 14:00:00 3 7 Nordeste 15 Nordeste 0 -- -- 47
2018-02-08 13:00:00 2.2 6 Norte 15 Nordeste 0 -- -- 56
2018-02-08 12:00:00 1 7 Nordeste 14 Norte 0 -- -- 62
2018-02-08 11:00:00 0.2 4 Nordeste 12 Norte 0 -- -- 72
2018-02-08 10:00:00 -2 5 Norte 8 Norte 0 -- -- 89
2018-02-08 09:00:00 -5.2 0 Calma 0 Calma 0 -- -- 90
2018-02-08 08:00:00 -5.1 0 Calma -- -- 0 -- -- 88
2018-02-08 07:00:00 -5 0 Calma -- -- 0 -- -- 88
2018-02-08 06:00:00 -4 0 Calma -- -- 0 -- -- 85
2018-02-08 05:00:00 -2.5 0 Calma 8 Norte 0 -- -- 84
2018-02-08 04:00:00 -2.6 6 Norte 9 Norte 0 -- -- 84
2018-02-08 03:00:00 -3 8 Norte 9 Norte 0 -- -- 85
2018-02-08 02:00:00 -3.7 4 Norte 11 Nordeste 0 -- -- 85
2018-02-08 01:00:00 -1.9 9 Nordeste 13 Nordeste 0 -- -- 78
2018-02-08 00:00:00 -0.6 13 Nordeste 18 Este 0 -- -- 73
2018-02-07 23:00:00 -0.3 11 Nordeste 16 Nordeste 0 -- -- 73
2018-02-07 22:00:00 -0.4 7 Norte 10 Norte 0 -- -- 72
2018-02-07 21:00:00 -1.4 5 Nordeste 10 Este 0 -- -- 76
2018-02-07 20:00:00 -0.2 6 Este 11 Este 0 -- -- 67
2018-02-07 19:00:00 1.3 10 Nordeste 22 Nordeste 0 -- -- 63
2018-02-07 18:00:00 3 13 Nordeste 21 Nordeste 0 -- -- 54
2018-02-07 17:00:00 3.4 15 Nordeste 24 Nordeste 0 -- -- 53
2018-02-07 16:00:00 3.3 18 Nordeste 30 Nordeste 0 -- -- 55
2018-02-07 15:00:00 3.2 16 Nordeste 26 Norte 0 -- -- 54
2018-02-07 14:00:00 3.5 15 Nordeste 27 Este 0 -- -- 59
2018-02-07 13:00:00 2.7 12 Nordeste 27 Nordeste 0 -- -- 67
2018-02-07 12:00:00 1.6 12 Nordeste 25 Nordeste 0 -- -- 73
2018-02-07 11:00:00 0.4 13 Norte 19 Nordeste 0 -- -- 79
2018-02-07 10:00:00 -0.7 7 Norte 10 Norte 0 -- -- 85
2018-02-07 09:00:00 -2.2 5 Noroeste 10 Norte 0 -- -- 88
2018-02-07 08:00:00 -2.7 3 Norte 11 Norte 0 -- -- 87
2018-02-07 07:00:00 -2.6 6 Norte 10 Norte 0 -- -- 85
2018-02-07 06:00:00 -3.5 0 Calma -- -- 0 -- -- 88
2018-02-07 05:00:00 -3.5 0 Calma -- -- 0 -- -- 87
2018-02-07 04:00:00 -3.6 0 Calma -- -- 0 -- -- 87
2018-02-07 03:00:00 -3.9 0 Calma -- -- 0 -- -- 86
2018-02-07 02:00:00 -3.9 0 Calma -- -- 0 -- -- 85
2018-02-07 01:00:00 -3.6 0 Calma 4 Nordeste 0 -- -- 84
2018-02-07 00:00:00 -3.6 5 Nordeste 13 Norte 0 -- -- 84
2018-02-06 23:00:00 -2 10 Nordeste 19 Norte 0 -- -- 77
2018-02-06 22:00:00 -1.3 7 Nordeste 12 Norte 0 -- -- 74
2018-02-06 21:00:00 -0.8 7 Nordeste 10 Nordeste 0 -- -- 72
2018-02-06 20:00:00 -0.5 7 Norte 17 Norte 0 -- -- 69
2018-02-06 19:00:00 1.4 13 Norte 28 Norte 0 -- -- 61
2018-02-06 18:00:00 3 18 Norte 24 Norte 0 -- -- 56
2018-02-06 17:00:00 3.5 13 Norte 26 Norte 0 -- -- 53
2018-02-06 16:00:00 3.1 13 Norte 29 Nordeste 0 -- -- 53
2018-02-06 15:00:00 3 14 Nordeste 26 Norte 0 -- -- 56
2018-02-06 14:00:00 2.8 14 Nordeste 25 Nordeste 0 -- -- 60
2018-02-06 13:00:00 1.6 19 Norte 31 Norte 0 -- -- 66
2018-02-06 12:00:00 1.3 20 Nordeste 26 Nordeste 0 -- -- 67
2018-02-06 11:00:00 -0.1 14 Nordeste 21 Nordeste 0 -- -- 74
2018-02-06 10:00:00 -1.9 6 Norte 14 Norte 0 -- -- 79
2018-02-06 09:00:00 -4.1 8 Norte 13 Norte 0 -- -- 85
2018-02-06 08:00:00 -3.9 9 Norte 13 Norte 0 -- -- 83
2018-02-06 07:00:00 -3.7 8 Norte 13 Norte 0 -- -- 84
2018-02-06 06:00:00 -2.6 10 Norte 18 Norte 0 -- -- 80
2018-02-06 05:00:00 -1.9 12 Norte 20 Norte 0 -- -- 78
2018-02-06 04:00:00 -2 15 Norte 24 Norte 0 -- -- 78
2018-02-06 03:00:00 -1.3 18 Norte 26 Norte 0 -- -- 78
2018-02-06 02:00:00 -0.9 19 Norte 28 Norte 0 -- -- 79
2018-02-06 01:00:00 -0.6 18 Norte 24 Norte 0 -- -- 81
2018-02-06 00:00:00 0 13 Nordeste 30 Norte 0 -- -- 87
2018-02-05 23:00:00 0.4 24 Norte 39 Nordeste 0 -- -- 82
2018-02-05 22:00:00 -0.1 30 Nordeste 50 Nordeste 0 -- -- 89
2018-02-05 21:00:00 1.3 30 Nordeste 49 Nordeste 0 -- -- 71
2018-02-05 20:00:00 1.7 30 Nordeste 41 Nordeste 0 -- -- 71
2018-02-05 19:00:00 1.3 32 Nordeste 50 Nordeste 0 -- -- 79
2018-02-05 18:00:00 3 29 Nordeste 48 Nordeste 0 -- -- 65
2018-02-05 17:00:00 4 35 Nordeste 49 Nordeste 0 -- -- 60
2018-02-05 16:00:00 4.7 35 Nordeste 52 Nordeste 0 -- -- 60
2018-02-05 15:00:00 5.6 39 Nordeste 50 Nordeste 0 -- -- 59
2018-02-05 14:00:00 4.4 39 Nordeste 65 Nordeste 0 -- -- 69
2018-02-05 13:00:00 3 35 Nordeste 48 Nordeste 0.2 -- -- 79
2018-02-05 12:00:00 1.4 24 Nordeste 34 Nordeste 0.2 -- -- 88
2018-02-05 11:00:00 0.5 27 Norte 37 Norte 0 -- -- 88
2018-02-05 10:00:00 -0.3 18 Norte 28 Norte 0 -- -- 93
2018-02-05 09:00:00 -0.7 13 Norte 22 Norte 0 -- -- 93
2018-02-05 08:00:00 -1.3 9 Norte 18 Norte 0 -- -- 94
2018-02-05 07:00:00 -2.1 9 Norte 12 Norte 0 -- -- 94
2018-02-05 06:00:00 -2.1 4 Norte 15 Norte 0 -- -- 93
2018-02-05 05:00:00 -1.4 13 Norte 19 Norte 0 -- -- 93
2018-02-05 04:00:00 -1.4 8 Norte 13 Norte 0 -- -- 92
2018-02-05 03:00:00 -1 6 Norte 14 Norte 0 -- -- 91
2018-02-05 02:00:00 -0.5 6 Norte 11 Norte 0 -- -- 90
2018-02-05 01:00:00 -0.4 9 Norte 13 Norte 0 -- -- 89
2018-02-05 00:00:00 -0.8 8 Norte 12 Nordeste 0 -- -- 90
2018-02-04 23:00:00 -0.8 10 Nordeste 15 Nordeste 0 -- -- 88
2018-02-04 22:00:00 -0.1 10 Nordeste 20 Nordeste 0 -- -- 85
2018-02-04 21:00:00 1.1 11 Nordeste 16 Nordeste 0 -- -- 81
2018-02-04 20:00:00 0.6 13 Nordeste 17 Nordeste 0 -- -- 82
2018-02-04 19:00:00 2.4 12 Este 21 Este 0 -- -- 75
2018-02-04 18:00:00 4.4 11 Nordeste 21 Nordeste 0 -- -- 65
2018-02-04 17:00:00 4.5 15 Nordeste 27 Nordeste 0 -- -- 61
2018-02-04 16:00:00 4.7 15 Nordeste 31 Norte 0 -- -- 64
2018-02-04 15:00:00 4.4 18 Nordeste 29 Norte 0.2 -- -- 64
2018-02-04 14:00:00 3.9 21 Norte 31 Norte 0 -- -- 71
2018-02-04 13:00:00 2.3 15 Norte 21 Norte 0 -- -- 81
2018-02-04 12:00:00 0.7 14 Norte 19 Norte 0 -- -- 85
2018-02-04 11:00:00 -0.7 7 Norte 10 Norte 0 -- -- 86
2018-02-04 10:00:00 -1.5 4 Norte 12 Nordeste 0 -- -- 87
2018-02-04 09:00:00 -1.8 6 Norte 18 Noroeste 0 -- -- 85
2018-02-04 08:00:00 -1.2 12 Noroeste 17 Noroeste 0 -- -- 83
2018-02-04 07:00:00 -0.5 12 Noroeste 24 Noroeste 0 -- -- 82
2018-02-04 06:00:00 -0.3 15 Noroeste 22 Noroeste 0 -- -- 87
2018-02-04 05:00:00 0.2 8 Noroeste 13 Noroeste 0 -- -- 91
2018-02-04 04:00:00 1.4 9 Noroeste 26 Noroeste 0 -- -- 88
2018-02-04 03:00:00 2.2 16 Noroeste 25 Noroeste 0 -- -- 92
2018-02-04 02:00:00 2.5 20 Noroeste 35 Noroeste 0.4 -- -- 92
2018-02-04 01:00:00 3.3 24 Oeste 36 Oeste 0 -- -- 90
2018-02-04 00:00:00 3.5 18 Oeste 34 Oeste 0 -- -- 90
2018-02-03 23:00:00 3.9 22 Oeste 34 Oeste 0.2 -- -- 89
2018-02-03 22:00:00 4.2 14 Oeste 32 Oeste 0 -- -- 92
2018-02-03 21:00:00 4.6 22 Oeste 33 Oeste 0 -- -- 93
2018-02-03 20:00:00 4.5 20 Sudoeste 32 Oeste 0.4 -- -- 93
2018-02-03 19:00:00 5.2 23 Oeste 43 Oeste 0 -- -- 85
2018-02-03 18:00:00 6.4 24 Oeste 37 Oeste 0 -- -- 76
2018-02-03 17:00:00 7.3 26 Oeste 39 Oeste 0 -- -- 73
2018-02-03 16:00:00 6.1 21 Oeste 34 Oeste 0 -- -- 75
2018-02-03 15:00:00 6 26 Oeste 36 Oeste 0 -- -- 71
2018-02-03 14:00:00 6.3 20 Oeste 35 Oeste 0 -- -- 70
2018-02-03 13:00:00 4.8 22 Sudoeste 31 Sudoeste 0 -- -- 71
2018-02-03 12:00:00 3.2 22 Sudoeste 36 Oeste 0 -- -- 72
2018-02-03 11:00:00 1.1 20 Sudoeste 28 Sudoeste 0 -- -- 79
2018-02-03 10:00:00 -1.3 19 Sudoeste 26 Sudoeste 0 -- -- 86
2018-02-03 09:00:00 -2.1 14 Sudoeste 22 Sudoeste 0 -- -- 84
2018-02-03 08:00:00 -2.3 12 Sudoeste 25 Sudoeste 0 -- -- 86
2018-02-03 07:00:00 -2.9 7 Sudoeste 18 Sudoeste 0 -- -- 86
2018-02-03 06:00:00 -2.8 6 Sudoeste 18 Sudoeste 0 -- -- 82
2018-02-03 05:00:00 -2.1 9 Sudoeste 14 Sudoeste 0 -- -- 81
2018-02-03 04:00:00 -1.9 6 Sudoeste 11 Sudoeste 0 -- -- 79
2018-02-03 03:00:00 -1.4 2 Oeste 6 Noroeste 0 -- -- 78
2018-02-03 02:00:00 -2.1 0 Calma 3 Oeste 0 -- -- 77
2018-02-03 01:00:00 -2.3 0 Calma 6 Oeste 0 -- -- 78
2018-02-03 00:00:00 -2.1 0 Calma 6 Noroeste 0 -- -- 78
2018-02-02 23:00:00 -1.4 5 Noroeste 13 Norte 0 -- -- 76
2018-02-02 22:00:00 -0.9 7 Noroeste 16 Norte 0 -- -- 75
2018-02-02 21:00:00 0.3 12 Norte 16 Norte 0 -- -- 69
2018-02-02 20:00:00 1 9 Norte 25 Norte 0 -- -- 66
2018-02-02 19:00:00 2.6 18 Norte 30 Norte 0 -- -- 58
2018-02-02 18:00:00 5 19 Norte 31 Norte 0 -- -- 50
2018-02-02 17:00:00 5.7 18 Norte 31 Norte 0 -- -- 52
2018-02-02 16:00:00 5.1 18 Norte 27 Norte 0 -- -- 55
2018-02-02 15:00:00 4.6 17 Norte 30 Norte 0 -- -- 57
2018-02-02 14:00:00 4.2 21 Norte 31 Norte 0 -- -- 60
2018-02-02 13:00:00 3.5 18 Norte 26 Norte 0 -- -- 67
2018-02-02 12:00:00 2.8 14 Norte 21 Norte 0 -- -- 73
2018-02-02 11:00:00 1.1 9 Norte 15 Noroeste 0 -- -- 81
2018-02-02 10:00:00 -1.2 0 Calma 10 Norte 0 -- -- 89
2018-02-02 09:00:00 -2.8 5 Norte 9 Norte 0 -- -- 92
2018-02-02 08:00:00 -2.8 0 Calma 15 Norte 0 -- -- 90
2018-02-02 07:00:00 -2.5 9 Norte 17 Norte 0 -- -- 92
2018-02-02 06:00:00 -2 10 Norte 24 Noroeste 0 -- -- 91
2018-02-02 05:00:00 -1.9 16 Noroeste 25 Norte 0 -- -- 91
2018-02-02 04:00:00 -1.7 14 Norte 22 Norte 0 -- -- 90
2018-02-02 03:00:00 -1.8 10 Norte 19 Norte 0 -- -- 92
2018-02-02 02:00:00 -2.2 0 Calma 9 Norte 0 -- -- 90
2018-02-02 01:00:00 -1.6 6 Norte 17 Norte 0 -- -- 89
2018-02-02 00:00:00 -0.9 11 Norte 16 Norte 0 -- -- 87
2018-02-01 23:00:00 -0.4 10 Norte 17 Norte 0 -- -- 82
2018-02-01 22:00:00 -0.2 10 Norte 18 Noroeste 0 -- -- 81
2018-02-01 21:00:00 0.5 15 Norte 19 Norte 0 -- -- 79
2018-02-01 20:00:00 1.9 8 Nordeste 12 Nordeste 0 -- -- 78
2018-02-01 19:00:00 2.7 8 Norte 52 Norte 0 -- -- 75
2018-02-01 18:00:00 4.9 22 Norte 50 Norte 0 -- -- 65
2018-02-01 17:00:00 8 39 Norte 57 Noroeste 0 -- -- 48
2018-02-01 16:00:00 7.7 24 Norte 39 Norte 0 -- -- 49
2018-02-01 15:00:00 9.1 22 Norte 37 Noroeste 0 -- -- 47
2018-02-01 14:00:00 8.3 19 Noroeste 32 Noroeste 0 -- -- 61
2018-02-01 13:00:00 6.9 12 Noroeste 22 Noroeste 0 -- -- 70
2018-02-01 12:00:00 7.6 15 Noroeste 21 Norte 0 -- -- 71
2018-02-01 11:00:00 6.9 12 Noroeste 19 Noroeste 0 -- -- 77
2018-02-01 10:00:00 2.7 5 Sudoeste 14 Sudoeste 0 -- -- 91
2018-02-01 09:00:00 1.3 6 Sudoeste 8 Sudoeste 0 -- -- 87
2018-02-01 08:00:00 1.7 5 Sudoeste 10 Sudoeste 0 -- -- 88
2018-02-01 07:00:00 1.8 7 Sudoeste 10 Sur 0 -- -- 86
2018-02-01 06:00:00 2 5 Sudoeste 7 Sudoeste 0 -- -- 84
2018-02-01 05:00:00 2.6 3 Sudoeste 10 Sudoeste 0 -- -- 81
2018-02-01 04:00:00 3.1 7 Sudoeste 13 Sudoeste 0 -- -- 76
2018-02-01 03:00:00 3.8 8 Sudoeste 17 Sudoeste 0 -- -- 70
2018-02-01 02:00:00 4.2 9 Sudoeste 21 Sudoeste 0 -- -- 70
2018-02-01 01:00:00 4.2 7 Sudoeste 13 Sudoeste 0 -- -- 72
2018-02-01 00:00:00 4.8 8 Sudoeste 10 Sudoeste 0 -- -- 71
2018-01-31 23:00:00 4.2 6 Sudoeste 9 Sudoeste 0 -- -- 71
2018-01-31 22:00:00 3.9 5 Sudoeste 6 Sudoeste 0 -- -- 73
2018-01-31 21:00:00 4.2 3 Sudoeste 6 Oeste 0 -- -- 73
2018-01-31 20:00:00 5.6 0 Calma 5 Sudoeste 0 -- -- 68
2018-01-31 19:00:00 8.9 3 Sudoeste 9 Sudoeste 0 -- -- 58
2018-01-31 18:00:00 12.1 8 Sudoeste 13 Sudoeste 0 -- -- 48
2018-01-31 17:00:00 13.4 6 Sudoeste 14 Sudoeste 0 -- -- 38
2018-01-31 16:00:00 13 7 Sur 12 Sur 0 -- -- 36
2018-01-31 15:00:00 11.7 3 Nordeste 15 Norte 0 -- -- 56
2018-01-31 14:00:00 11.2 4 Norte 10 Norte 0 -- -- 59
2018-01-31 13:00:00 10 2 Nordeste 4 Nordeste 0 -- -- 63
2018-01-31 12:00:00 8 0 Calma 5 Sur 0 -- -- 73
2018-01-31 11:00:00 4.2 3 Sur 7 Sur 0 -- -- 88
2018-01-31 10:00:00 1 0 Calma 2 Sur 0 -- -- 97
2018-01-31 09:00:00 -1.6 0 Calma 7 Noroeste 0 -- -- 95
2018-01-31 08:00:00 -1.6 3 Norte 8 Norte 0 -- -- 94
2018-01-31 07:00:00 -1.5 0 Calma 4 Sudoeste 0 -- -- 94
2018-01-31 06:00:00 -0.4 3 Sur 5 Sur 0 -- -- 93
2018-01-31 05:00:00 -0.6 0 Calma 3 Sur 0 -- -- 92
2018-01-31 04:00:00 0.4 0 Calma 3 Noroeste 0 -- -- 91
2018-01-31 03:00:00 0.4 2 Norte 3 Noroeste 0 -- -- 92
2018-01-31 02:00:00 0.7 0 Calma 3 Norte -- -- -- 88
2018-01-31 01:00:00 0.7 0 Calma 2 Oeste 0 -- -- 86
2018-01-31 00:00:00 1.4 0 Calma 2 Sur 0 -- -- 88
2018-01-30 23:00:00 2.3 0 Calma 4 Sur 0 -- -- 84
2018-01-30 22:00:00 2.8 3 Sudoeste 4 Sudoeste 0 -- -- 86
2018-01-30 21:00:00 3.1 0 Calma 3 Sudoeste 0 -- -- 82
2018-01-30 20:00:00 4.4 0 Calma 5 Nordeste 0 -- -- 79
2018-01-30 19:00:00 5.9 5 Nordeste 8 Nordeste 0 -- -- 75
2018-01-30 18:00:00 9.7 8 Norte 14 Norte 0 -- -- 64
2018-01-30 17:00:00 10.5 10 Norte 13 Nordeste 0 -- -- 59
2018-01-30 16:00:00 10.3 9 Nordeste 12 Nordeste 0 -- -- 64
2018-01-30 15:00:00 9.5 7 Nordeste 15 Norte 0 -- -- 66
2018-01-30 14:00:00 8 9 Nordeste 16 Nordeste 0 -- -- 75
2018-01-30 13:00:00 5.8 6 Nordeste 10 Nordeste 0 -- -- 82
2018-01-30 12:00:00 3.8 8 Nordeste 9 Norte 0 -- -- 88
2018-01-30 11:00:00 2.6 3 Norte 4 Norte 0 -- -- 92
2018-01-30 10:00:00 -0.2 2 Sudoeste 6 Norte 0 -- -- 96
2018-01-30 09:00:00 -1.5 5 Norte 7 Norte 0 -- -- 94
2018-01-30 08:00:00 -0.8 5 Norte 8 Norte 0 -- -- 95
2018-01-30 07:00:00 -0.8 4 Sudoeste 5 Sudoeste 0 -- -- 95
2018-01-30 06:00:00 -1 0 Calma 4 Norte 0 -- -- 93
2018-01-30 05:00:00 -0.1 2 Noroeste 4 Noroeste 0 -- -- 93
2018-01-30 04:00:00 0.3 0 Calma 5 Norte 0 -- -- 91
2018-01-30 03:00:00 0.8 0 Calma 8 Norte 0 -- -- 91
2018-01-30 02:00:00 1.4 0 Calma 4 Sudoeste 0 -- -- 91
2018-01-30 01:00:00 1.8 2 Sudoeste 4 Sudoeste 0 -- -- 90
2018-01-30 00:00:00 2.3 0 Calma 4 Norte 0 -- -- 92
2018-01-29 23:00:00 2.3 0 Calma 4 Sudoeste 0 -- -- 89
2018-01-29 22:00:00 3.3 2 Sudoeste 3 Sudoeste 0 -- -- 88
2018-01-29 21:00:00 3.8 0 Calma 6 Sudoeste 0 -- -- 85
2018-01-29 20:00:00 4.8 0 Calma 6 Nordeste 0 -- -- 83
2018-01-29 19:00:00 5.7 4 Este 6 Nordeste 0 -- -- 82
2018-01-29 18:00:00 9.7 6 Nordeste 16 Nordeste 0 -- -- 71
2018-01-29 17:00:00 10.5 12 Nordeste 19 Nordeste 0 -- -- 63
2018-01-29 16:00:00 10.7 13 Nordeste 19 Nordeste 0 -- -- 63
2018-01-29 15:00:00 9.9 10 Nordeste 18 Nordeste 0 -- -- 68
2018-01-29 14:00:00 8.3 10 Nordeste 13 Nordeste 0 -- -- 78
2018-01-29 13:00:00 6.1 8 Nordeste 14 Nordeste 0 -- -- 85
2018-01-29 12:00:00 4.1 9 Nordeste 13 Nordeste 0 -- -- 90
2018-01-29 11:00:00 2.8 8 Norte 10 Norte 0 -- -- 94
2018-01-29 10:00:00 0.8 3 Norte 4 Norte 0 -- -- 98
2018-01-29 09:00:00 -1 2 Sudoeste 6 Sudoeste 0 -- -- 96
2018-01-29 08:00:00 -1 0 Calma 4 Oeste 0 -- -- 95
2018-01-29 07:00:00 -0.5 0 Calma 4 Oeste 0 -- -- 95
2018-01-29 06:00:00 -0.4 0 Calma 6 Norte 0 -- -- 94
2018-01-29 05:00:00 -0.1 0 Calma 8 Norte 0 -- -- 93
2018-01-29 04:00:00 1 8 Nordeste 10 Nordeste 0 -- -- 93
2018-01-29 03:00:00 1 2 Nordeste 10 Este 0 -- -- 92
2018-01-29 02:00:00 2.5 12 Este 13 Este 0 -- -- 93
2018-01-29 01:00:00 2.2 4 Nordeste 10 Nordeste 0 -- -- 89
2018-01-29 00:00:00 3 6 Nordeste 13 Este 0 -- -- 85
2018-01-28 23:00:00 5.2 10 Este 19 Este 0 -- -- 81
2018-01-28 22:00:00 5.7 15 Este 22 Este 0 -- -- 80
2018-01-28 21:00:00 6.9 19 Este 26 Este 0 -- -- 76
2018-01-28 20:00:00 7.6 23 Este 32 Este 0 -- -- 74
2018-01-28 19:00:00 7.8 17 Nordeste 32 Este 0 -- -- 75
2018-01-28 18:00:00 9.7 25 Este 39 Nordeste 0 -- -- 67
2018-01-28 17:00:00 10.8 29 Nordeste 41 Nordeste 0 -- -- 64
2018-01-28 16:00:00 10.8 31 Nordeste 43 Nordeste 0 -- -- 62
2018-01-28 15:00:00 9.8 25 Nordeste 35 Nordeste 0 -- -- 69
2018-01-28 14:00:00 8.4 22 Nordeste 36 Nordeste 0 -- -- 71
2018-01-28 13:00:00 6.1 21 Nordeste 33 Nordeste 0 -- -- 74
2018-01-28 12:00:00 2.5 13 Norte 22 Nordeste 0 -- -- 84
2018-01-28 11:00:00 1 9 Este 16 Nordeste 0 -- -- 87
2018-01-28 10:00:00 -0.7 5 Nordeste 9 Norte 0 -- -- 95
2018-01-28 09:00:00 -2.5 7 Norte 9 Norte 0 -- -- 95
2018-01-28 08:00:00 -2.4 6 Norte 8 Norte 0 -- -- 94
2018-01-28 07:00:00 -2.2 5 Norte 9 Nordeste 0 -- -- 93
2018-01-28 06:00:00 -1.5 7 Nordeste 12 Nordeste 0 -- -- 93
2018-01-28 05:00:00 -0.9 7 Nordeste 15 Nordeste 0 -- -- 91
2018-01-28 04:00:00 -0.5 9 Nordeste 17 Nordeste 0 -- -- 89
2018-01-28 03:00:00 -0.6 12 Nordeste 14 Nordeste 0 -- -- 90
2018-01-28 02:00:00 -0.3 2 Nordeste 16 Nordeste 0 -- -- 89
2018-01-28 01:00:00 0.5 13 Nordeste 18 Nordeste 0 -- -- 86
2018-01-28 00:00:00 0.8 14 Nordeste 26 Nordeste 0 -- -- 85
2018-01-27 23:00:00 1.6 17 Nordeste 26 Nordeste 0 -- -- 83
2018-01-27 22:00:00 2.1 15 Nordeste 22 Nordeste 0 -- -- 81
2018-01-27 21:00:00 3.5 21 Este 34 Nordeste 0 -- -- 76
2018-01-27 20:00:00 4.2 19 Nordeste 29 Nordeste 0 -- -- 78
2018-01-27 19:00:00 4.7 20 Nordeste 26 Nordeste 0 -- -- 79
2018-01-27 18:00:00 6.3 16 Nordeste 23 Nordeste 0 -- -- 73
2018-01-27 17:00:00 6.9 21 Nordeste 30 Nordeste 0 -- -- 67
2018-01-27 16:00:00 6.8 20 Nordeste 30 Norte 0 -- -- 71
2018-01-27 15:00:00 6.8 18 Nordeste 26 Nordeste 0 -- -- 71
2018-01-27 14:00:00 6.2 9 Norte 22 Norte 0 -- -- 74
2018-01-27 13:00:00 4.8 10 Norte 15 Norte 0 -- -- 80
2018-01-27 12:00:00 3.8 9 Norte 13 Norte 0 -- -- 80
2018-01-27 11:00:00 2.8 0 Calma 3 Noroeste 0 -- -- 83
2018-01-27 10:00:00 -0.1 0 Calma 4 Sudoeste 0 -- -- 93
2018-01-27 09:00:00 -1.7 0 Calma 4 Sudoeste 0 -- -- 92
2018-01-27 08:00:00 -0.9 0 Calma 6 Sudeste 0 -- -- 90
2018-01-27 07:00:00 -1.1 3 Oeste 5 Sudoeste 0 -- -- 90
2018-01-27 06:00:00 -1 2 Oeste 5 Sudoeste 0 -- -- 89
2018-01-27 05:00:00 -0.3 2 Oeste 7 Oeste 0 -- -- 89
2018-01-27 04:00:00 -0.7 0 Calma 6 Sudoeste 0 -- -- 90
2018-01-27 03:00:00 -0.3 2 Sur 6 Sudoeste 0 -- -- 90
2018-01-27 02:00:00 0.5 2 Sudoeste 7 Oeste 0 -- -- 87
2018-01-27 01:00:00 1.2 2 Oeste 4 Noroeste 0 -- -- 85
2018-01-27 00:00:00 0.9 2 Sur 5 Sur 0 -- -- 87
2018-01-26 23:00:00 0.9 6 Noroeste 16 Norte 0 -- -- 85
2018-01-26 22:00:00 1.5 5 Noroeste 16 Norte 0 -- -- 84
2018-01-26 21:00:00 2.6 12 Norte 23 Noroeste 0 -- -- 81
2018-01-26 20:00:00 3.8 14 Norte 22 Norte 0 -- -- 78
2018-01-26 19:00:00 4.7 9 Noroeste 22 Noroeste 0 -- -- 78
2018-01-26 18:00:00 6.1 14 Noroeste 27 Noroeste 0 -- -- 72
2018-01-26 17:00:00 6.7 18 Norte 32 Norte 0 -- -- 68
2018-01-26 16:00:00 7.3 20 Norte 32 Noroeste 0 -- -- 67
2018-01-26 15:00:00 6.5 18 Noroeste 30 Oeste 0 -- -- 69
2018-01-26 14:00:00 6.3 15 Noroeste 30 Noroeste 0 -- -- 70
2018-01-26 13:00:00 5.7 19 Noroeste 27 Noroeste 0 -- -- 71
2018-01-26 12:00:00 4.4 14 Oeste 23 Oeste 0 -- -- 79
2018-01-26 11:00:00 2.9 13 Oeste 22 Oeste 0 -- -- 84
2018-01-26 10:00:00 1.2 10 Oeste 22 Oeste 0 -- -- 90
2018-01-26 09:00:00 0.1 12 Oeste 18 Oeste 0 -- -- 94
2018-01-26 08:00:00 0.3 9 Oeste 24 Oeste 0 -- -- 93
2018-01-26 07:00:00 0.3 14 Oeste 23 Oeste 0 -- -- 93
2018-01-26 06:00:00 0.5 13 Oeste 21 Oeste 0 -- -- 92
2018-01-26 05:00:00 0.5 13 Oeste 22 Oeste 0 -- -- 91
2018-01-26 04:00:00 0.5 13 Noroeste 25 Oeste 0 -- -- 90
2018-01-26 03:00:00 0.7 13 Oeste 22 Oeste 0 -- -- 90
2018-01-26 02:00:00 0.8 13 Noroeste 20 Noroeste 0 -- -- 89
2018-01-26 01:00:00 1.1 11 Noroeste 25 Noroeste 0 -- -- 91
2018-01-26 00:00:00 1.8 17 Noroeste 27 Noroeste 0 -- -- 88
2018-01-25 23:00:00 2.3 18 Noroeste 27 Noroeste 0 -- -- 89
2018-01-25 22:00:00 2.7 17 Noroeste 29 Noroeste 0 -- -- 89
2018-01-25 21:00:00 3.1 14 Noroeste 31 Noroeste 0 -- -- 91
2018-01-25 20:00:00 2.8 23 Norte 39 Noroeste 1.6 -- -- 95
2018-01-25 19:00:00 2.3 30 Noroeste 44 Noroeste 3 -- -- 94
2018-01-25 18:00:00 3.6 23 Noroeste 44 Noroeste 0.2 -- -- 90
2018-01-25 17:00:00 6.3 16 Oeste 30 Oeste 0 -- -- 84
2018-01-25 16:00:00 6.8 19 Oeste 35 Oeste 0 -- -- 82
2018-01-25 15:00:00 6 21 Oeste 37 Oeste 0 -- -- 90
2018-01-25 14:00:00 6.6 23 Oeste 35 Oeste 0 -- -- 88
2018-01-25 13:00:00 6.1 22 Oeste 37 Oeste 0.6 -- -- 94
2018-01-25 12:00:00 6.5 25 Sudoeste 36 Sudoeste 0.2 -- -- 96
2018-01-25 11:00:00 5.9 17 Sudoeste 26 Sudoeste 1 -- -- 97
2018-01-25 10:00:00 4.8 19 Sudoeste 27 Sudoeste 2.4 -- -- 96
2018-01-25 09:00:00 4.7 17 Sudoeste 30 Sudoeste 0.2 -- -- 96
2018-01-25 08:00:00 4.9 22 Sudoeste 30 Sudoeste 0.4 -- -- 95
2018-01-25 07:00:00 4.3 7 Sudoeste 18 Sudoeste 0 -- -- 92
2018-01-25 06:00:00 4.9 6 Sudoeste 21 Sudoeste 0 -- -- 92
2018-01-25 05:00:00 4.2 16 Sudoeste 21 Sudoeste 0 -- -- 90
2018-01-25 04:00:00 4.2 4 Sudoeste 13 Sur 0 -- -- 90
2018-01-25 03:00:00 4.1 5 Sudoeste 17 Sur 0 -- -- 91
2018-01-25 02:00:00 4.3 13 Sur 17 Sudoeste 0 -- -- 92
2018-01-25 01:00:00 4.3 5 Sudoeste 12 Sudoeste 0 -- -- 94
2018-01-25 00:00:00 4.3 6 Sudoeste 17 Sudoeste 0 -- -- 94
2018-01-24 23:00:00 4.4 9 Sudoeste 18 Sudoeste 0 -- -- 94
2018-01-24 22:00:00 4.4 8 Sudoeste 15 Sudoeste 0 -- -- 94
2018-01-24 21:00:00 5.1 4 Sudoeste 9 Sudoeste 0 -- -- 93
2018-01-24 20:00:00 5.4 6 Sudoeste 10 Sudoeste 0 -- -- 92
2018-01-24 19:00:00 6.1 8 Sudoeste 13 Sudoeste 0 -- -- 89
2018-01-24 18:00:00 7.3 8 Sudoeste 18 Sudoeste 0 -- -- 85
2018-01-24 17:00:00 8.5 13 Sudoeste 23 Oeste 0 -- -- 79
2018-01-24 16:00:00 9.2 17 Oeste 24 Oeste 0 -- -- 77
2018-01-24 15:00:00 8.3 11 Sudoeste 17 Sudoeste 0 -- -- 82
2018-01-24 14:00:00 5.7 7 Sudoeste 13 Oeste 0 -- -- 98
2018-01-24 13:00:00 4.1 2 Sur 8 Sudoeste 0 -- -- 100
2018-01-24 12:00:00 2.6 4 Oeste 6 Oeste 0 -- -- 99
2018-01-24 11:00:00 2.4 3 Noroeste 5 Noroeste 0 -- -- 99
2018-01-24 10:00:00 2.1 0 Calma 6 Este 0 -- -- 99
2018-01-24 09:00:00 2 3 Sur 10 Sudeste 0 -- -- 99
2018-01-24 08:00:00 2 5 Sudeste 10 Sudeste 0 -- -- 99
2018-01-24 07:00:00 2.3 7 Sudeste 12 Sudeste 0 -- -- 98
2018-01-24 06:00:00 2.9 4 Este 11 Sudeste 0 -- -- 99
2018-01-24 05:00:00 2.8 4 Sudeste 9 Sudeste 0 -- -- 98
2018-01-24 04:00:00 2.8 3 Este 10 Sudeste 0 -- -- 98
2018-01-24 03:00:00 3 5 Sudeste 12 Sur 0 -- -- 98
2018-01-24 02:00:00 3.3 5 Sudeste 12 Este 0 -- -- 98
2018-01-24 01:00:00 3.4 4 Este 10 Nordeste 0 -- -- 98
2018-01-24 00:00:00 3.5 3 Este 13 Nordeste 0 -- -- 97
2018-01-23 23:00:00 3.5 7 Nordeste 16 Este 0 -- -- 97
2018-01-23 22:00:00 3.8 7 Este 15 Nordeste 0 -- -- 97
2018-01-23 21:00:00 4 5 Nordeste 14 Nordeste 0 -- -- 96
2018-01-23 20:00:00 4.2 7 Este 14 Este 0 -- -- 95
2018-01-23 19:00:00 4.7 6 Este 14 Este 0 -- -- 94
2018-01-23 18:00:00 5.2 6 Nordeste 16 Nordeste 0 -- -- 93
2018-01-23 17:00:00 5.6 5 Nordeste 17 Nordeste 0 -- -- 92
2018-01-23 16:00:00 5.5 8 Norte 13 Norte 0 -- -- 94
2018-01-23 15:00:00 5.3 5 Norte 13 Norte 0 -- -- 96
2018-01-23 14:00:00 5.1 2 Nordeste 10 Sudeste 0 -- -- 98
2018-01-23 13:00:00 5 3 Este 9 Este 0 -- -- 98
2018-01-23 12:00:00 4.5 6 Este 9 Este 0 -- -- 98
2018-01-23 11:00:00 4.2 5 Este 7 Nordeste 0 -- -- 98
2018-01-23 10:00:00 3.7 3 Nordeste 7 Nordeste 0.2 -- -- 99
2018-01-23 09:00:00 1.9 2 Norte 5 Norte 0 -- -- 99
2018-01-23 08:00:00 0.5 0 Calma 2 Oeste 0 -- -- 99
2018-01-23 07:00:00 0.4 0 Calma 3 Sudoeste 0 -- -- 98
2018-01-23 06:00:00 0.6 0 Calma 2 Sudoeste 0 -- -- 98
2018-01-23 05:00:00 0.8 0 Calma 2 Sur 0 -- -- 97
2018-01-23 04:00:00 1.1 0 Calma 0 Calma 0 -- -- 97
2018-01-23 03:00:00 1 0 Calma 2 Sur 0 -- -- 97
2018-01-23 02:00:00 1 0 Calma 3 Sur 0 -- -- 96
2018-01-23 01:00:00 1.3 0 Calma 5 Nordeste 0 -- -- 95
2018-01-23 00:00:00 2.1 4 Nordeste 7 Nordeste 0 -- -- 94
2018-01-22 23:00:00 3.1 4 Nordeste 6 Nordeste 0 -- -- 92
2018-01-22 22:00:00 4.8 0 Calma 13 Sudeste 0 -- -- 90
2018-01-22 21:00:00 5.5 2 Sudeste 13 Este 0 -- -- 89
2018-01-22 20:00:00 6.8 7 Este 15 Este 0 -- -- 89
2018-01-22 19:00:00 7.7 6 Este 9 Este 0 -- -- 82
2018-01-22 18:00:00 10.8 8 Nordeste 11 Este 0 -- -- 75
2018-01-22 17:00:00 12.3 3 Norte 10 Norte 0 -- -- 68
2018-01-22 16:00:00 12.1 4 Sudoeste 14 Oeste 0 -- -- 68
2018-01-22 15:00:00 11.2 5 Oeste 14 Oeste 0 -- -- 74
2018-01-22 14:00:00 9.7 6 Oeste 20 Oeste 0 -- -- 79
2018-01-22 13:00:00 8.5 10 Oeste 21 Oeste 0 -- -- 84
2018-01-22 12:00:00 7.6 13 Oeste 21 Sudoeste 0 -- -- 87
2018-01-22 11:00:00 7 11 Sudoeste 20 Oeste 0 -- -- 91
2018-01-22 10:00:00 6.3 11 Sudoeste 18 Sudoeste 0 -- -- 92
2018-01-22 09:00:00 6.3 12 Oeste 21 Sudoeste 0 -- -- 93
2018-01-22 08:00:00 6.5 14 Oeste 20 Oeste 0 -- -- 94
2018-01-22 07:00:00 6.4 12 Oeste 23 Oeste 0 -- -- 94
2018-01-22 06:00:00 6.5 11 Oeste 19 Oeste 0 -- -- 95
2018-01-22 05:00:00 6.1 6 Oeste 14 Oeste 0 -- -- 95
2018-01-22 04:00:00 6.3 8 Sudoeste 17 Sudoeste 0 -- -- 95
2018-01-22 03:00:00 6.5 12 Sudoeste 17 Sudoeste 0 -- -- 96
2018-01-22 02:00:00 5.1 10 Sudoeste 20 Sudoeste 0 -- -- 96
2018-01-22 01:00:00 4.7 12 Sudoeste 16 Sudoeste 0 -- -- 95
2018-01-22 00:00:00 5.3 10 Sudoeste 20 Sudoeste 0 -- -- 94